createdAt,value
2018-06-23T00:01:33.192Z,96052.00
2018-06-23T00:04:10.585Z,96046.00
2018-06-23T00:06:47.992Z,96046.00
2018-06-23T00:09:25.274Z,96045.00
2018-06-23T00:12:02.872Z,96044.00
2018-06-23T00:14:40.292Z,96050.00
2018-06-23T00:17:18.024Z,96057.00
2018-06-23T00:19:55.352Z,96056.00
2018-06-23T00:22:32.732Z,96061.00
2018-06-23T00:25:10.132Z,96053.00
2018-06-23T00:27:47.592Z,96049.00
2018-06-23T00:30:24.857Z,96043.00
2018-06-23T00:33:02.255Z,96056.00
2018-06-23T00:35:39.532Z,96055.00
2018-06-23T00:38:17.024Z,96058.00
2018-06-23T00:40:54.160Z,96053.00
2018-06-23T00:43:31.804Z,96052.00
2018-06-23T00:46:09.136Z,96050.00
2018-06-23T00:48:46.520Z,96051.00
2018-06-23T00:51:23.872Z,96047.00
2018-06-23T00:54:01.334Z,96052.00
2018-06-23T00:56:38.697Z,96052.00
2018-06-23T00:59:32.672Z,96048.00
2018-06-23T01:02:10.392Z,96044.00
2018-06-23T01:04:47.604Z,96055.00
2018-06-23T01:07:24.936Z,96049.00
2018-06-23T01:10:02.366Z,96052.00
2018-06-23T01:12:39.785Z,96051.00
2018-06-23T01:15:17.157Z,96048.00
2018-06-23T01:17:54.496Z,96057.00
2018-06-23T01:20:31.912Z,96053.00
2018-06-23T01:23:09.230Z,96050.00
2018-06-23T01:25:46.804Z,96048.00
2018-06-23T01:28:24.007Z,96049.00
2018-06-23T01:31:01.332Z,96050.00
2018-06-23T01:33:38.524Z,96052.00
2018-06-23T01:36:15.852Z,96049.00
2018-06-23T01:38:53.145Z,96049.00
2018-06-23T01:41:30.647Z,96054.00
2018-06-23T01:44:07.521Z,96050.00
2018-06-23T01:46:44.764Z,96047.00
2018-06-23T01:49:22.045Z,96046.00
2018-06-23T01:51:59.513Z,96045.00
2018-06-23T01:54:36.752Z,96049.00
2018-06-23T01:57:14.131Z,96053.00
2018-06-23T01:59:51.472Z,96047.00
2018-06-23T02:02:28.852Z,96043.00
2018-06-23T02:05:06.236Z,96039.00
2018-06-23T02:07:43.552Z,96039.00
2018-06-23T02:10:20.767Z,96037.00
2018-06-23T02:12:58.312Z,96036.00
2018-06-23T02:15:40.712Z,96034.00
2018-06-23T02:18:23.092Z,96030.00
2018-06-23T02:21:05.436Z,96030.00
2018-06-23T02:23:47.807Z,96024.00
2018-06-23T02:26:30.328Z,96025.00
2018-06-23T02:29:12.893Z,96024.00
2018-06-23T02:31:55.150Z,96027.00
2018-06-23T02:34:37.672Z,96026.00
2018-06-23T02:37:14.974Z,96023.00
2018-06-23T02:39:52.358Z,96021.00
2018-06-23T02:42:29.788Z,96019.00
2018-06-23T02:45:08.312Z,96021.00
2018-06-23T02:47:45.776Z,96022.00
2018-06-23T02:50:23.121Z,96016.00
2018-06-23T02:53:00.472Z,96017.00
2018-06-23T02:55:37.904Z,96019.00
2018-06-23T02:58:15.332Z,96022.00
2018-06-23T03:00:52.981Z,96021.00
2018-06-23T03:03:30.232Z,96016.00
2018-06-23T03:06:07.975Z,96024.00
2018-06-23T03:08:45.360Z,96023.00
2018-06-23T03:11:22.903Z,96018.00
2018-06-23T03:14:00.224Z,96021.00
2018-06-23T03:16:37.604Z,96024.00
2018-06-23T03:19:15.186Z,96029.00
2018-06-23T03:21:52.611Z,96025.00
2018-06-23T03:24:29.919Z,96024.00
2018-06-23T03:27:07.344Z,96034.00
2018-06-23T03:29:44.666Z,96026.00
2018-06-23T03:32:22.013Z,96030.00
2018-06-23T03:34:59.412Z,96034.00
2018-06-23T03:37:36.778Z,96029.00
2018-06-23T03:40:14.293Z,96032.00
2018-06-23T03:42:51.711Z,96029.00
2018-06-23T03:45:29.032Z,96031.00
2018-06-23T03:48:06.591Z,96034.00
2018-06-23T03:50:44.061Z,96025.00
2018-06-23T03:53:21.625Z,96026.00
2018-06-23T03:55:59.140Z,96026.00
2018-06-23T03:58:36.584Z,96031.00
2018-06-23T04:01:13.928Z,96030.00
2018-06-23T04:03:51.273Z,96021.00
2018-06-23T04:06:28.573Z,96027.00
2018-06-23T04:09:09.691Z,96025.00
2018-06-23T04:11:46.965Z,96019.00
2018-06-23T04:14:24.364Z,96017.00
2018-06-23T04:17:01.853Z,96024.00
2018-06-23T04:19:39.332Z,96026.00
2018-06-23T04:22:16.747Z,96028.00
2018-06-23T04:24:54.124Z,96026.00
2018-06-23T04:27:31.637Z,96029.00
2018-06-23T04:30:08.672Z,96032.00
2018-06-23T04:32:45.831Z,96031.00
2018-06-23T04:35:23.392Z,96028.00
2018-06-23T04:38:00.761Z,96035.00
2018-06-23T04:40:38.119Z,96039.00
2018-06-23T04:43:15.492Z,96039.00
2018-06-23T04:45:52.820Z,96041.00
2018-06-23T04:48:30.207Z,96041.00
2018-06-23T04:51:07.776Z,96037.00
2018-06-23T04:53:47.544Z,96039.00
2018-06-23T04:56:24.877Z,96046.00
2018-06-23T04:59:02.344Z,96046.00
2018-06-23T05:01:39.924Z,96044.00
2018-06-23T05:04:17.303Z,96045.00
2018-06-23T05:06:54.698Z,96053.00
2018-06-23T05:09:31.965Z,96054.00
2018-06-23T05:12:09.381Z,96047.00
2018-06-23T05:14:46.831Z,96049.00
2018-06-23T05:17:24.311Z,96043.00
2018-06-23T05:20:01.813Z,96040.00
2018-06-23T05:22:39.752Z,96043.00
2018-06-23T05:25:17.232Z,96049.00
2018-06-23T05:27:54.575Z,96046.00
2018-06-23T05:30:31.892Z,96046.00
2018-06-23T05:33:09.312Z,96045.00
2018-06-23T05:35:46.732Z,96051.00
2018-06-23T05:38:24.271Z,96051.00
2018-06-23T05:41:01.660Z,96058.00
2018-06-23T05:43:38.943Z,96058.00
2018-06-23T05:46:16.252Z,96056.00
2018-06-23T05:48:57.363Z,96058.00
2018-06-23T05:51:34.672Z,96054.00
2018-06-23T05:54:12.105Z,96060.00
2018-06-23T05:56:44.132Z,96055.00
2018-06-23T05:59:17.010Z,96054.00
2018-06-23T06:01:48.984Z,96059.00
2018-06-23T06:04:21.083Z,96057.00
2018-06-23T06:06:53.092Z,96056.00
2018-06-23T06:09:25.018Z,96055.00
2018-06-23T06:11:56.772Z,96055.00
2018-06-23T06:14:28.712Z,96062.00
2018-06-23T06:17:24.515Z,96054.00
2018-06-23T06:19:57.608Z,96054.00
2018-06-23T06:22:30.632Z,96049.00
2018-06-23T06:25:02.638Z,96052.00
2018-06-23T06:27:34.405Z,96044.00
2018-06-23T06:30:09.739Z,96053.00
2018-06-23T06:32:41.510Z,96046.00
2018-06-23T06:35:13.504Z,96048.00
2018-06-23T06:37:45.320Z,96037.00
2018-06-23T06:40:17.183Z,96029.00
2018-06-23T06:42:49.152Z,96032.00
2018-06-23T06:45:21.213Z,96034.00
2018-06-23T06:47:52.967Z,96038.00
2018-06-23T06:50:24.844Z,96029.00
2018-06-23T06:52:56.647Z,96033.00
2018-06-23T06:55:28.855Z,96035.00
2018-06-23T06:58:00.633Z,96032.00
2018-06-23T07:00:32.492Z,96032.00
2018-06-23T07:03:04.278Z,96028.00
2018-06-23T07:05:36.219Z,96028.00
2018-06-23T07:08:07.996Z,96020.00
2018-06-23T07:10:39.898Z,96023.00
2018-06-23T07:13:11.772Z,96015.00
2018-06-23T07:15:43.717Z,96011.00
2018-06-23T07:18:15.664Z,96007.00
2018-06-23T07:20:47.672Z,96013.00
2018-06-23T07:23:19.809Z,96006.00
2018-06-23T07:25:51.766Z,96013.00
2018-06-23T07:28:23.785Z,96010.00
2018-06-23T07:30:55.829Z,96011.00
2018-06-23T07:33:27.240Z,96006.00
2018-06-23T07:35:59.032Z,96001.00
2018-06-23T07:38:31.024Z,95996.00
2018-06-23T07:41:03.073Z,95995.00
2018-06-23T07:43:34.964Z,95994.00
2018-06-23T07:46:07.085Z,95998.00
2018-06-23T07:48:39.010Z,95988.00
2018-06-23T07:51:11.004Z,95984.00
2018-06-23T07:53:43.232Z,95978.00
2018-06-23T07:56:15.277Z,95976.00
2018-06-23T07:58:47.248Z,95976.00
2018-06-23T08:01:20.277Z,95972.00
2018-06-23T08:03:52.197Z,95974.00
2018-06-23T08:06:24.234Z,95973.00
2018-06-23T08:08:56.052Z,95971.00
2018-06-23T08:11:27.992Z,95960.00
2018-06-23T08:13:59.865Z,95959.00
2018-06-23T08:16:31.864Z,95956.00
2018-06-23T08:19:04.103Z,95957.00
2018-06-23T08:21:36.055Z,95951.00
2018-06-23T08:24:07.553Z,95950.00
2018-06-23T08:26:39.533Z,95951.00
2018-06-23T08:29:11.314Z,95938.00
2018-06-23T08:31:43.373Z,95935.00
2018-06-23T08:34:15.747Z,95937.00
2018-06-23T08:36:47.926Z,95932.00
2018-06-23T08:39:20.044Z,95932.00
2018-06-23T08:41:51.932Z,95930.00
2018-06-23T08:44:23.818Z,95931.00
2018-06-23T08:46:55.765Z,95930.00
2018-06-23T08:49:27.664Z,95933.00
2018-06-23T08:51:59.645Z,95927.00
2018-06-23T08:54:31.568Z,95924.00
2018-06-23T08:57:03.668Z,95914.00
2018-06-23T08:59:35.413Z,95910.00
2018-06-23T09:02:07.684Z,95910.00
2018-06-23T09:04:39.627Z,95911.00
2018-06-23T09:07:11.634Z,95911.00
2018-06-23T09:09:43.482Z,95909.00
2018-06-23T09:12:15.532Z,95901.00
2018-06-23T09:14:47.396Z,95895.00
2018-06-23T09:17:19.457Z,95904.00
2018-06-23T09:19:51.287Z,95900.00
2018-06-23T09:22:23.233Z,95903.00
2018-06-23T09:24:55.144Z,95896.00
2018-06-23T09:27:27.232Z,95897.00
2018-06-23T09:29:59.133Z,95898.00
2018-06-23T09:32:31.252Z,95890.00
2018-06-23T09:35:03.263Z,95893.00
2018-06-23T09:37:35.372Z,95890.00
2018-06-23T09:40:07.302Z,95888.00
2018-06-23T09:42:39.576Z,95886.00
2018-06-23T09:45:11.532Z,95884.00
2018-06-23T09:47:43.613Z,95890.00
2018-06-23T09:50:15.564Z,95888.00
2018-06-23T09:52:47.632Z,95886.00
2018-06-23T09:55:19.510Z,95886.00
2018-06-23T09:57:51.488Z,95882.00
2018-06-23T10:00:28.854Z,95886.00
2018-06-23T10:03:02.273Z,95881.00
2018-06-23T10:05:34.218Z,95879.00
2018-06-23T10:08:06.185Z,95885.00
2018-06-23T10:10:38.352Z,95888.00
2018-06-23T10:13:10.425Z,95884.00
2018-06-23T10:15:42.435Z,95877.00
2018-06-23T10:18:14.852Z,95872.00
2018-06-23T10:20:46.826Z,95870.00
2018-06-23T10:23:18.724Z,95873.00
2018-06-23T10:25:50.787Z,95874.00
2018-06-23T10:28:22.817Z,95869.00
2018-06-23T10:30:54.964Z,95862.00
2018-06-23T10:33:26.828Z,95868.00
2018-06-23T10:35:58.812Z,95868.00
2018-06-23T10:38:30.805Z,95874.00
2018-06-23T10:41:02.840Z,95862.00
2018-06-23T10:43:34.886Z,95868.00
2018-06-23T10:46:06.946Z,95863.00
2018-06-23T10:48:38.940Z,95860.00
2018-06-23T10:51:10.853Z,95858.00
2018-06-23T10:53:42.894Z,95855.00
2018-06-23T10:56:14.965Z,95856.00
2018-06-23T10:58:46.951Z,95852.00
2018-06-23T11:01:18.906Z,95852.00
2018-06-23T11:03:50.860Z,95834.00
2018-06-23T11:06:22.793Z,95839.00
2018-06-23T11:08:54.744Z,95850.00
2018-06-23T11:11:26.552Z,95846.00
2018-06-23T11:13:58.585Z,95842.00
2018-06-23T11:16:30.025Z,95842.00
2018-06-23T11:19:01.831Z,95839.00
2018-06-23T11:21:33.867Z,95844.00
2018-06-23T11:24:05.931Z,95841.00
2018-06-23T11:26:38.133Z,95833.00
2018-06-23T11:29:10.193Z,95838.00
2018-06-23T11:31:42.228Z,95836.00
2018-06-23T11:34:14.315Z,95836.00
2018-06-23T11:36:46.452Z,95828.00
2018-06-23T11:39:18.687Z,95823.00
2018-06-23T11:41:51.012Z,95819.00
2018-06-23T11:44:22.974Z,95816.00
2018-06-23T11:46:54.965Z,95815.00
2018-06-23T11:49:26.730Z,95810.00
2018-06-23T11:51:58.532Z,95802.00
2018-06-23T11:54:30.065Z,95812.00
2018-06-23T11:57:01.882Z,95802.00
2018-06-23T11:59:33.876Z,95813.00
2018-06-23T12:02:05.874Z,95818.00
2018-06-23T12:04:37.893Z,95819.00
2018-06-23T12:07:09.875Z,95807.00
2018-06-23T12:09:41.924Z,95809.00
2018-06-23T12:12:13.871Z,95804.00
2018-06-23T12:14:45.818Z,95801.00
2018-06-23T12:17:17.863Z,95804.00
2018-06-23T12:19:49.991Z,95793.00
2018-06-23T12:22:22.072Z,95791.00
2018-06-23T12:24:54.175Z,95788.00
2018-06-23T12:27:26.164Z,95784.00
2018-06-23T12:29:58.227Z,95783.00
2018-06-23T12:32:30.156Z,95782.00
2018-06-23T12:35:02.166Z,95778.00
2018-06-23T12:37:34.122Z,95774.00
2018-06-23T12:40:06.480Z,95770.00
2018-06-23T12:42:38.316Z,95770.00
2018-06-23T12:45:10.252Z,95765.00
2018-06-23T12:47:42.135Z,95770.00
2018-06-23T12:50:14.178Z,95767.00
2018-06-23T12:52:46.097Z,95759.00
2018-06-23T12:55:17.996Z,95763.00
2018-06-23T12:57:50.032Z,95759.00
2018-06-23T13:00:22.116Z,95753.00
2018-06-23T13:02:54.236Z,95752.00
2018-06-23T13:05:26.393Z,95761.00
2018-06-23T13:07:58.433Z,95762.00
2018-06-23T13:10:30.593Z,95760.00
2018-06-23T13:13:02.716Z,95758.00
2018-06-23T13:15:34.805Z,95757.00
2018-06-23T13:18:07.904Z,95755.00
2018-06-23T13:20:41.146Z,95747.00
2018-06-23T13:23:13.127Z,95745.00
2018-06-23T13:25:45.131Z,95739.00
2018-06-23T13:28:17.188Z,95745.00
2018-06-23T13:30:49.253Z,95738.00
2018-06-23T13:33:21.292Z,95743.00
2018-06-23T13:35:53.552Z,95736.00
2018-06-23T13:38:25.520Z,95734.00
2018-06-23T13:40:57.663Z,95733.00
2018-06-23T13:43:29.740Z,95738.00
2018-06-23T13:46:01.389Z,95741.00
2018-06-23T13:48:33.161Z,95736.00
2018-06-23T13:51:05.141Z,95734.00
2018-06-23T13:53:37.115Z,95734.00
2018-06-23T13:56:09.575Z,95745.00
2018-06-23T13:58:41.493Z,95740.00
2018-06-23T14:01:13.533Z,95738.00
2018-06-23T14:03:45.461Z,95745.00
2018-06-23T14:06:17.434Z,95734.00
2018-06-23T14:08:49.344Z,95733.00
2018-06-23T14:11:21.363Z,95744.00
2018-06-23T14:13:53.238Z,95750.00
2018-06-23T14:16:25.193Z,95753.00
2018-06-23T14:18:57.107Z,95746.00
2018-06-23T14:21:29.264Z,95742.00
2018-06-23T14:24:01.404Z,95748.00
2018-06-23T14:26:33.397Z,95743.00
2018-06-23T14:29:05.392Z,95741.00
2018-06-23T14:31:37.472Z,95731.00
2018-06-23T14:34:09.284Z,95729.00
2018-06-23T14:36:41.121Z,95735.00
2018-06-23T14:39:12.772Z,95735.00
2018-06-23T14:41:44.454Z,95731.00
2018-06-23T14:44:16.312Z,95726.00
2018-06-23T14:46:48.383Z,95728.00
2018-06-23T14:49:20.312Z,95725.00
2018-06-23T14:51:52.233Z,95727.00
2018-06-23T14:54:24.105Z,95725.00
2018-06-23T14:56:56.005Z,95720.00
2018-06-23T14:59:27.820Z,95722.00
2018-06-23T15:02:00.156Z,95726.00
2018-06-23T15:04:31.952Z,95723.00
2018-06-23T15:07:03.853Z,95714.00
2018-06-23T15:09:52.192Z,95713.00
2018-06-23T15:12:40.533Z,95705.00
2018-06-23T15:15:12.360Z,95712.00
2018-06-23T15:17:44.906Z,95712.00
2018-06-23T15:20:17.153Z,95712.00
2018-06-23T15:22:49.046Z,95707.00
2018-06-23T15:25:20.833Z,95711.00
2018-06-23T15:27:52.688Z,95715.00
2018-06-23T15:30:24.509Z,95714.00
2018-06-23T15:32:56.636Z,95721.00
2018-06-23T15:35:28.641Z,95719.00
2018-06-23T15:38:00.680Z,95724.00
2018-06-23T15:40:32.628Z,95720.00
2018-06-23T15:43:05.412Z,95719.00
2018-06-23T15:45:37.372Z,95723.00
2018-06-23T15:48:09.635Z,95715.00
2018-06-23T15:50:41.520Z,95726.00
2018-06-23T15:53:13.455Z,95726.00
2018-06-23T15:55:45.407Z,95727.00
2018-06-23T15:58:17.372Z,95720.00
2018-06-23T16:00:49.266Z,95727.00
2018-06-23T16:03:21.172Z,95726.00
2018-06-23T16:05:53.112Z,95725.00
2018-06-23T16:08:25.648Z,95710.00
2018-06-23T16:10:57.853Z,95717.00
2018-06-23T16:13:29.871Z,95717.00
2018-06-23T16:16:01.769Z,95734.00
2018-06-23T16:18:33.812Z,95739.00
2018-06-23T16:21:05.772Z,95739.00
2018-06-23T16:23:38.041Z,95722.00
2018-06-23T16:26:09.874Z,95715.00
2018-06-23T16:28:41.853Z,95721.00
2018-06-23T16:31:13.761Z,95720.00
2018-06-23T16:33:45.961Z,95719.00
2018-06-23T16:36:18.445Z,95723.00
2018-06-23T16:38:50.518Z,95719.00
2018-06-23T16:41:22.416Z,95729.00
2018-06-23T16:43:54.309Z,95723.00
2018-06-23T16:46:26.237Z,95719.00
2018-06-23T16:48:58.332Z,95721.00
2018-06-23T16:51:30.193Z,95733.00
2018-06-23T16:54:02.751Z,95721.00
2018-06-23T16:56:34.739Z,95721.00
2018-06-23T16:59:06.757Z,95714.00
2018-06-23T17:01:38.944Z,95709.00
2018-06-23T17:04:10.937Z,95717.00
2018-06-23T17:06:43.960Z,95728.00
2018-06-23T17:09:15.843Z,95726.00
2018-06-23T17:11:47.894Z,95723.00
2018-06-23T17:14:20.036Z,95730.00
2018-06-23T17:16:51.873Z,95728.00
2018-06-23T17:19:23.987Z,95733.00
2018-06-23T17:21:56.236Z,95725.00
2018-06-23T17:24:28.251Z,95734.00
2018-06-23T17:27:00.153Z,95741.00
2018-06-23T17:29:32.085Z,95742.00
2018-06-23T17:32:04.064Z,95749.00
2018-06-23T17:34:36.036Z,95737.00
2018-06-23T17:37:08.102Z,95744.00
2018-06-23T17:39:40.003Z,95747.00
2018-06-23T17:42:11.905Z,95743.00
2018-06-23T17:44:43.828Z,95744.00
2018-06-23T17:47:15.690Z,95750.00
2018-06-23T17:49:47.593Z,95752.00
2018-06-23T17:52:19.515Z,95748.00
2018-06-23T17:54:51.955Z,95745.00
2018-06-23T17:57:23.908Z,95751.00
2018-06-23T17:59:55.855Z,95757.00
2018-06-23T18:02:27.750Z,95758.00
2018-06-23T18:04:59.632Z,95757.00
2018-06-23T18:07:31.573Z,95759.00
2018-06-23T18:10:03.633Z,95761.00
2018-06-23T18:12:35.799Z,95764.00
2018-06-23T18:15:08.067Z,95757.00
2018-06-23T18:17:39.953Z,95757.00
2018-06-23T18:20:11.874Z,95755.00
2018-06-23T18:22:43.684Z,95762.00
2018-06-23T18:25:16.811Z,95769.00
2018-06-23T18:27:48.574Z,95766.00
2018-06-23T18:30:20.524Z,95771.00
2018-06-23T18:32:52.392Z,95767.00
2018-06-23T18:35:24.360Z,95772.00
2018-06-23T18:37:56.222Z,95773.00
2018-06-23T18:40:28.104Z,95778.00
2018-06-23T18:43:00.017Z,95780.00
2018-06-23T18:45:31.815Z,95779.00
2018-06-23T18:48:03.732Z,95779.00
2018-06-23T18:50:35.697Z,95783.00
2018-06-23T18:53:07.612Z,95783.00
2018-06-23T18:55:39.833Z,95780.00
2018-06-23T18:58:11.719Z,95779.00
2018-06-23T19:00:43.743Z,95785.00
2018-06-23T19:03:15.512Z,95787.00
2018-06-23T19:05:47.436Z,95794.00
2018-06-23T19:08:19.296Z,95791.00
2018-06-23T19:10:51.233Z,95795.00
2018-06-23T19:13:23.124Z,95797.00
2018-06-23T19:15:55.089Z,95798.00
2018-06-23T19:18:27.444Z,95797.00
2018-06-23T19:20:59.563Z,95793.00
2018-06-23T19:23:31.514Z,95800.00
2018-06-23T19:26:03.629Z,95797.00
2018-06-23T19:28:35.692Z,95803.00
2018-06-23T19:31:08.052Z,95804.00
2018-06-23T19:33:39.903Z,95803.00
2018-06-23T19:36:11.833Z,95802.00
2018-06-23T19:38:43.742Z,95808.00
2018-06-23T19:41:29.164Z,95813.00
2018-06-23T19:44:01.144Z,95816.00
2018-06-23T19:46:33.047Z,95820.00
2018-06-23T19:49:05.293Z,95819.00
2018-06-23T19:51:37.232Z,95825.00
2018-06-23T19:54:09.044Z,95831.00
2018-06-23T19:56:41.068Z,95829.00
2018-06-23T19:59:12.472Z,95838.00
2018-06-23T20:01:44.198Z,95838.00
2018-06-23T20:04:15.539Z,95832.00
2018-06-23T20:06:47.592Z,95844.00
2018-06-23T20:09:19.445Z,95839.00
2018-06-23T20:11:51.365Z,95844.00
2018-06-23T20:14:23.273Z,95842.00
2018-06-23T20:16:55.328Z,95851.00
2018-06-23T20:19:28.035Z,95852.00
2018-06-23T20:21:59.725Z,95862.00
2018-06-23T20:24:31.361Z,95858.00
2018-06-23T20:27:03.337Z,95862.00
2018-06-23T20:29:36.895Z,95864.00
2018-06-23T20:32:09.773Z,95862.00
2018-06-23T20:34:41.701Z,95868.00
2018-06-23T20:37:13.593Z,95869.00
2018-06-23T20:39:45.932Z,95870.00
2018-06-23T20:42:17.909Z,95874.00
2018-06-23T20:44:51.837Z,95872.00
2018-06-23T20:47:23.774Z,95873.00
2018-06-23T20:49:55.684Z,95887.00
2018-06-23T20:52:27.622Z,95883.00
2018-06-23T20:54:59.505Z,95882.00
2018-06-23T20:57:31.377Z,95886.00
2018-06-23T21:00:03.212Z,95873.00
2018-06-23T21:02:35.141Z,95874.00
2018-06-23T21:05:07.032Z,95876.00
2018-06-23T21:07:38.992Z,95882.00
2018-06-23T21:10:21.413Z,95878.00
2018-06-23T21:12:53.455Z,95877.00
2018-06-23T21:15:25.333Z,95884.00
2018-06-23T21:17:56.887Z,95884.00
2018-06-23T21:20:28.525Z,95889.00
2018-06-23T21:23:00.652Z,95893.00
2018-06-23T21:25:32.849Z,95891.00
2018-06-23T21:28:04.914Z,95896.00
2018-06-23T21:30:36.767Z,95900.00
2018-06-23T21:33:08.806Z,95891.00
2018-06-23T21:35:40.758Z,95891.00
2018-06-23T21:38:12.723Z,95888.00
2018-06-23T21:40:44.615Z,95893.00
2018-06-23T21:43:16.642Z,95892.00
2018-06-23T21:45:49.572Z,95889.00
2018-06-23T21:48:21.504Z,95895.00
2018-06-23T21:50:53.408Z,95900.00
2018-06-23T21:53:25.469Z,95902.00
2018-06-23T21:55:58.070Z,95893.00
2018-06-23T21:58:30.108Z,95889.00
2018-06-23T22:01:02.102Z,95890.00
2018-06-23T22:03:34.104Z,95890.00
2018-06-23T22:06:05.993Z,95884.00
2018-06-23T22:08:37.949Z,95890.00
2018-06-23T22:11:09.933Z,95890.00
2018-06-23T22:13:42.052Z,95897.00
2018-06-23T22:16:13.997Z,95888.00
2018-06-23T22:18:45.889Z,95884.00
2018-06-23T22:21:17.725Z,95883.00
2018-06-23T22:23:49.760Z,95878.00
2018-06-23T22:26:21.655Z,95885.00
2018-06-23T22:28:53.712Z,95882.00
2018-06-23T22:31:25.612Z,95876.00
2018-06-23T22:33:57.597Z,95877.00
2018-06-23T22:36:29.495Z,95884.00
2018-06-23T22:39:01.345Z,95882.00
2018-06-23T22:41:33.220Z,95888.00
2018-06-23T22:44:05.280Z,95881.00
2018-06-23T22:46:37.332Z,95884.00
2018-06-23T22:49:09.267Z,95879.00
2018-06-23T22:51:41.064Z,95875.00
2018-06-23T22:54:13.011Z,95879.00
2018-06-23T22:56:44.797Z,95872.00
2018-06-23T22:59:16.713Z,95881.00
2018-06-23T23:01:48.534Z,95878.00
2018-06-23T23:04:20.372Z,95877.00
2018-06-23T23:06:52.213Z,95865.00
2018-06-23T23:09:24.094Z,95867.00
2018-06-23T23:11:55.976Z,95862.00
2018-06-23T23:14:28.072Z,95863.00
2018-06-23T23:16:59.893Z,95865.00
2018-06-23T23:19:31.749Z,95853.00
2018-06-23T23:22:03.611Z,95856.00
2018-06-23T23:24:35.492Z,95858.00
2018-06-23T23:27:07.373Z,95858.00
2018-06-23T23:29:39.223Z,95863.00
2018-06-23T23:32:11.847Z,95859.00
2018-06-23T23:34:43.813Z,95859.00
2018-06-23T23:37:15.764Z,95859.00
2018-06-23T23:39:48.857Z,95853.00
2018-06-23T23:42:20.713Z,95858.00
2018-06-23T23:44:52.655Z,95867.00
2018-06-23T23:47:24.498Z,95868.00
2018-06-23T23:49:56.411Z,95862.00
2018-06-23T23:52:28.283Z,95853.00
2018-06-23T23:55:00.192Z,95851.00
2018-06-23T23:57:31.632Z,95854.00
